sensor_id;sensor_type;location;lat;lon;timestamp;pressure;altitude;pressure_sealevel;temperature
14851;BMP180;7517;48.400;11.770;2022-07-22T00:01:05;96874.00;;;23.80
14851;BMP180;7517;48.400;11.770;2022-07-22T00:03:32;96871.00;;;23.80
14851;BMP180;7517;48.400;11.770;2022-07-22T00:06:01;96871.00;;;23.80
14851;BMP180;7517;48.400;11.770;2022-07-22T00:08:28;96865.00;;;23.80
14851;BMP180;7517;48.400;11.770;2022-07-22T00:10:55;96868.00;;;23.80
14851;BMP180;7517;48.400;11.770;2022-07-22T00:13:22;96867.00;;;23.80
14851;BMP180;7517;48.400;11.770;2022-07-22T00:15:50;96867.00;;;23.80
14851;BMP180;7517;48.400;11.770;2022-07-22T00:18:17;96864.00;;;23.80
14851;BMP180;7517;48.400;11.770;2022-07-22T00:20:44;96866.00;;;23.80
14851;BMP180;7517;48.400;11.770;2022-07-22T00:23:13;96856.00;;;23.80
14851;BMP180;7517;48.400;11.770;2022-07-22T00:25:40;96855.00;;;23.80
14851;BMP180;7517;48.400;11.770;2022-07-22T00:28:07;96851.00;;;23.70
14851;BMP180;7517;48.400;11.770;2022-07-22T00:30:35;96851.00;;;23.70
14851;BMP180;7517;48.400;11.770;2022-07-22T00:33:03;96846.00;;;23.70
14851;BMP180;7517;48.400;11.770;2022-07-22T00:35:30;96845.00;;;23.70
14851;BMP180;7517;48.400;11.770;2022-07-22T00:37:58;96845.00;;;23.70
14851;BMP180;7517;48.400;11.770;2022-07-22T00:40:27;96838.00;;;23.60
14851;BMP180;7517;48.400;11.770;2022-07-22T00:42:55;96841.00;;;23.60
14851;BMP180;7517;48.400;11.770;2022-07-22T00:45:22;96835.00;;;23.60
14851;BMP180;7517;48.400;11.770;2022-07-22T00:47:49;96836.00;;;23.50
14851;BMP180;7517;48.400;11.770;2022-07-22T00:50:16;96833.00;;;23.50
14851;BMP180;7517;48.400;11.770;2022-07-22T00:52:46;96832.00;;;23.50
14851;BMP180;7517;48.400;11.770;2022-07-22T00:55:13;96834.00;;;23.40
14851;BMP180;7517;48.400;11.770;2022-07-22T00:57:42;96832.00;;;23.40
14851;BMP180;7517;48.400;11.770;2022-07-22T01:00:15;96834.00;;;23.40
14851;BMP180;7517;48.400;11.770;2022-07-22T01:02:42;96838.00;;;23.40
14851;BMP180;7517;48.400;11.770;2022-07-22T01:05:10;96830.00;;;23.30
14851;BMP180;7517;48.400;11.770;2022-07-22T01:07:38;96839.00;;;23.30
14851;BMP180;7517;48.400;11.770;2022-07-22T01:10:07;96833.00;;;23.30
14851;BMP180;7517;48.400;11.770;2022-07-22T01:12:34;96837.00;;;23.30
14851;BMP180;7517;48.400;11.770;2022-07-22T01:15:04;96836.00;;;23.20
14851;BMP180;7517;48.400;11.770;2022-07-22T01:17:32;96836.00;;;23.20
14851;BMP180;7517;48.400;11.770;2022-07-22T01:20:02;96828.00;;;23.10
14851;BMP180;7517;48.400;11.770;2022-07-22T01:22:31;96828.00;;;23.10
14851;BMP180;7517;48.400;11.770;2022-07-22T01:24:58;96824.00;;;23.10
14851;BMP180;7517;48.400;11.770;2022-07-22T01:27:25;96837.00;;;23.00
14851;BMP180;7517;48.400;11.770;2022-07-22T01:29:52;96839.00;;;23.00
14851;BMP180;7517;48.400;11.770;2022-07-22T01:32:19;96834.00;;;23.00
14851;BMP180;7517;48.400;11.770;2022-07-22T01:34:47;96825.00;;;22.90
14851;BMP180;7517;48.400;11.770;2022-07-22T01:37:15;96832.00;;;22.90
14851;BMP180;7517;48.400;11.770;2022-07-22T01:39:42;96834.00;;;22.90
14851;BMP180;7517;48.400;11.770;2022-07-22T01:42:09;96830.00;;;22.90
14851;BMP180;7517;48.400;11.770;2022-07-22T01:44:37;96831.00;;;22.80
14851;BMP180;7517;48.400;11.770;2022-07-22T01:47:05;96830.00;;;22.80
14851;BMP180;7517;48.400;11.770;2022-07-22T01:49:32;96829.00;;;22.80
14851;BMP180;7517;48.400;11.770;2022-07-22T01:52:00;96822.00;;;22.70
14851;BMP180;7517;48.400;11.770;2022-07-22T01:54:29;96826.00;;;22.70
14851;BMP180;7517;48.400;11.770;2022-07-22T01:56:56;96827.00;;;22.70
14851;BMP180;7517;48.400;11.770;2022-07-22T01:59:23;96819.00;;;22.70
14851;BMP180;7517;48.400;11.770;2022-07-22T02:01:50;96818.00;;;22.60
14851;BMP180;7517;48.400;11.770;2022-07-22T02:04:17;96820.00;;;22.60
14851;BMP180;7517;48.400;11.770;2022-07-22T02:06:45;96819.00;;;22.60
14851;BMP180;7517;48.400;11.770;2022-07-22T02:09:12;96813.00;;;22.50
14851;BMP180;7517;48.400;11.770;2022-07-22T02:11:41;96820.00;;;22.60
14851;BMP180;7517;48.400;11.770;2022-07-22T02:14:08;96820.00;;;22.50
14851;BMP180;7517;48.400;11.770;2022-07-22T02:16:35;96820.00;;;22.50
14851;BMP180;7517;48.400;11.770;2022-07-22T02:19:02;96829.00;;;22.50
14851;BMP180;7517;48.400;11.770;2022-07-22T02:21:30;96829.00;;;22.50
14851;BMP180;7517;48.400;11.770;2022-07-22T02:23:57;96826.00;;;22.50
14851;BMP180;7517;48.400;11.770;2022-07-22T02:26:25;96822.00;;;22.50
14851;BMP180;7517;48.400;11.770;2022-07-22T02:28:53;96817.00;;;22.50
14851;BMP180;7517;48.400;11.770;2022-07-22T02:31:21;96819.00;;;22.50
14851;BMP180;7517;48.400;11.770;2022-07-22T02:33:48;96826.00;;;22.50
14851;BMP180;7517;48.400;11.770;2022-07-22T02:36:15;96822.00;;;22.50
14851;BMP180;7517;48.400;11.770;2022-07-22T02:38:46;96819.00;;;22.40
14851;BMP180;7517;48.400;11.770;2022-07-22T02:41:13;96819.00;;;22.40
14851;BMP180;7517;48.400;11.770;2022-07-22T02:43:40;96809.00;;;22.40
14851;BMP180;7517;48.400;11.770;2022-07-22T02:46:09;96818.00;;;22.40
14851;BMP180;7517;48.400;11.770;2022-07-22T02:48:37;96816.00;;;22.40
14851;BMP180;7517;48.400;11.770;2022-07-22T02:51:04;96810.00;;;22.30
14851;BMP180;7517;48.400;11.770;2022-07-22T02:53:32;96812.00;;;22.30
14851;BMP180;7517;48.400;11.770;2022-07-22T02:55:59;96819.00;;;22.30
14851;BMP180;7517;48.400;11.770;2022-07-22T02:58:26;96820.00;;;22.30
14851;BMP180;7517;48.400;11.770;2022-07-22T03:00:54;96817.00;;;22.30
14851;BMP180;7517;48.400;11.770;2022-07-22T03:03:23;96818.00;;;22.30
14851;BMP180;7517;48.400;11.770;2022-07-22T03:05:50;96827.00;;;22.30
14851;BMP180;7517;48.400;11.770;2022-07-22T03:08:18;96825.00;;;22.20
14851;BMP180;7517;48.400;11.770;2022-07-22T03:10:45;96822.00;;;22.20
14851;BMP180;7517;48.400;11.770;2022-07-22T03:13:12;96829.00;;;22.20
14851;BMP180;7517;48.400;11.770;2022-07-22T03:15:40;96830.00;;;22.20
14851;BMP180;7517;48.400;11.770;2022-07-22T03:18:07;96829.00;;;22.10
14851;BMP180;7517;48.400;11.770;2022-07-22T03:20:36;96820.00;;;22.10
14851;BMP180;7517;48.400;11.770;2022-07-22T03:23:04;96826.00;;;22.00
14851;BMP180;7517;48.400;11.770;2022-07-22T03:25:31;96823.00;;;22.00
14851;BMP180;7517;48.400;11.770;2022-07-22T03:28:01;96820.00;;;22.00
14851;BMP180;7517;48.400;11.770;2022-07-22T03:30:29;96828.00;;;21.90
14851;BMP180;7517;48.400;11.770;2022-07-22T03:32:57;96823.00;;;21.90
14851;BMP180;7517;48.400;11.770;2022-07-22T03:35:24;96824.00;;;21.90
14851;BMP180;7517;48.400;11.770;2022-07-22T03:37:53;96822.00;;;21.90
14851;BMP180;7517;48.400;11.770;2022-07-22T03:40:20;96822.00;;;21.90
14851;BMP180;7517;48.400;11.770;2022-07-22T03:42:48;96822.00;;;21.80
14851;BMP180;7517;48.400;11.770;2022-07-22T03:45:15;96821.00;;;21.80
14851;BMP180;7517;48.400;11.770;2022-07-22T03:47:42;96826.00;;;21.80
14851;BMP180;7517;48.400;11.770;2022-07-22T03:50:09;96824.00;;;21.70
14851;BMP180;7517;48.400;11.770;2022-07-22T03:52:37;96818.00;;;21.70
14851;BMP180;7517;48.400;11.770;2022-07-22T03:55:09;96826.00;;;21.70
14851;BMP180;7517;48.400;11.770;2022-07-22T03:57:37;96820.00;;;21.70
14851;BMP180;7517;48.400;11.770;2022-07-22T04:00:06;96820.00;;;21.70
14851;BMP180;7517;48.400;11.770;2022-07-22T04:02:34;96827.00;;;21.60
14851;BMP180;7517;48.400;11.770;2022-07-22T04:05:01;96823.00;;;21.60
14851;BMP180;7517;48.400;11.770;2022-07-22T04:07:28;96823.00;;;21.60
14851;BMP180;7517;48.400;11.770;2022-07-22T04:09:55;96822.00;;;21.60
14851;BMP180;7517;48.400;11.770;2022-07-22T04:12:33;96815.00;;;21.60
14851;BMP180;7517;48.400;11.770;2022-07-22T04:15:00;96817.00;;;21.60
14851;BMP180;7517;48.400;11.770;2022-07-22T04:17:34;96820.00;;;21.60
14851;BMP180;7517;48.400;11.770;2022-07-22T04:20:06;96815.00;;;21.50
14851;BMP180;7517;48.400;11.770;2022-07-22T04:22:35;96813.00;;;21.60
14851;BMP180;7517;48.400;11.770;2022-07-22T04:25:03;96819.00;;;21.60
14851;BMP180;7517;48.400;11.770;2022-07-22T04:27:31;96817.00;;;21.60
14851;BMP180;7517;48.400;11.770;2022-07-22T04:29:59;96812.00;;;21.60
14851;BMP180;7517;48.400;11.770;2022-07-22T04:32:26;96820.00;;;21.70
14851;BMP180;7517;48.400;11.770;2022-07-22T04:34:56;96815.00;;;21.70
14851;BMP180;7517;48.400;11.770;2022-07-22T04:37:28;96808.00;;;21.70
14851;BMP180;7517;48.400;11.770;2022-07-22T04:39:57;96810.00;;;21.70
14851;BMP180;7517;48.400;11.770;2022-07-22T04:42:28;96803.00;;;21.70
14851;BMP180;7517;48.400;11.770;2022-07-22T04:44:56;96807.00;;;21.70
14851;BMP180;7517;48.400;11.770;2022-07-22T04:47:23;96803.00;;;21.70
14851;BMP180;7517;48.400;11.770;2022-07-22T04:49:55;96812.00;;;21.80
14851;BMP180;7517;48.400;11.770;2022-07-22T04:52:23;96812.00;;;21.80
14851;BMP180;7517;48.400;11.770;2022-07-22T04:54:50;96815.00;;;21.80
14851;BMP180;7517;48.400;11.770;2022-07-22T04:57:17;96820.00;;;21.80
14851;BMP180;7517;48.400;11.770;2022-07-22T04:59:49;96814.00;;;21.80
14851;BMP180;7517;48.400;11.770;2022-07-22T05:02:21;96814.00;;;21.90
14851;BMP180;7517;48.400;11.770;2022-07-22T05:04:54;96818.00;;;21.90
14851;BMP180;7517;48.400;11.770;2022-07-22T05:07:23;96822.00;;;21.90
14851;BMP180;7517;48.400;11.770;2022-07-22T05:09:52;96824.00;;;21.90
14851;BMP180;7517;48.400;11.770;2022-07-22T05:12:19;96814.00;;;22.00
14851;BMP180;7517;48.400;11.770;2022-07-22T05:14:49;96817.00;;;22.00
14851;BMP180;7517;48.400;11.770;2022-07-22T05:17:17;96817.00;;;22.00
14851;BMP180;7517;48.400;11.770;2022-07-22T05:19:45;96815.00;;;22.00
14851;BMP180;7517;48.400;11.770;2022-07-22T05:22:12;96818.00;;;22.00
14851;BMP180;7517;48.400;11.770;2022-07-22T05:24:40;96823.00;;;22.10
14851;BMP180;7517;48.400;11.770;2022-07-22T05:27:12;96815.00;;;22.10
14851;BMP180;7517;48.400;11.770;2022-07-22T05:29:39;96815.00;;;22.10
14851;BMP180;7517;48.400;11.770;2022-07-22T05:32:06;96823.00;;;22.20
14851;BMP180;7517;48.400;11.770;2022-07-22T05:34:34;96826.00;;;22.20
14851;BMP180;7517;48.400;11.770;2022-07-22T05:37:02;96817.00;;;22.20
14851;BMP180;7517;48.400;11.770;2022-07-22T05:39:30;96825.00;;;22.20
14851;BMP180;7517;48.400;11.770;2022-07-22T05:41:57;96821.00;;;22.30
14851;BMP180;7517;48.400;11.770;2022-07-22T05:44:24;96816.00;;;22.30
14851;BMP180;7517;48.400;11.770;2022-07-22T05:46:51;96821.00;;;22.40
14851;BMP180;7517;48.400;11.770;2022-07-22T05:49:24;96820.00;;;22.40
14851;BMP180;7517;48.400;11.770;2022-07-22T05:51:53;96823.00;;;22.50
14851;BMP180;7517;48.400;11.770;2022-07-22T05:54:27;96814.00;;;22.50
14851;BMP180;7517;48.400;11.770;2022-07-22T05:56:55;96816.00;;;22.60
14851;BMP180;7517;48.400;11.770;2022-07-22T05:59:22;96822.00;;;22.60
14851;BMP180;7517;48.400;11.770;2022-07-22T06:01:55;96817.00;;;22.70
14851;BMP180;7517;48.400;11.770;2022-07-22T06:04:22;96821.00;;;22.70
14851;BMP180;7517;48.400;11.770;2022-07-22T06:06:49;96813.00;;;22.80
14851;BMP180;7517;48.400;11.770;2022-07-22T06:09:17;96808.00;;;22.80
14851;BMP180;7517;48.400;11.770;2022-07-22T06:11:45;96810.00;;;22.90
14851;BMP180;7517;48.400;11.770;2022-07-22T06:14:16;96812.00;;;22.90
14851;BMP180;7517;48.400;11.770;2022-07-22T06:16:43;96817.00;;;23.00
14851;BMP180;7517;48.400;11.770;2022-07-22T06:19:19;96822.00;;;23.00
14851;BMP180;7517;48.400;11.770;2022-07-22T06:21:47;96825.00;;;23.10
14851;BMP180;7517;48.400;11.770;2022-07-22T06:24:14;96818.00;;;23.10
14851;BMP180;7517;48.400;11.770;2022-07-22T06:26:41;96827.00;;;23.20
14851;BMP180;7517;48.400;11.770;2022-07-22T06:29:11;96826.00;;;23.30
14851;BMP180;7517;48.400;11.770;2022-07-22T06:31:38;96828.00;;;23.30
14851;BMP180;7517;48.400;11.770;2022-07-22T06:34:06;96822.00;;;23.40
14851;BMP180;7517;48.400;11.770;2022-07-22T06:36:34;96828.00;;;23.40
14851;BMP180;7517;48.400;11.770;2022-07-22T06:39:01;96829.00;;;23.50
14851;BMP180;7517;48.400;11.770;2022-07-22T06:41:28;96830.00;;;23.60
14851;BMP180;7517;48.400;11.770;2022-07-22T06:43:56;96832.00;;;23.70
14851;BMP180;7517;48.400;11.770;2022-07-22T06:46:24;96825.00;;;23.70
14851;BMP180;7517;48.400;11.770;2022-07-22T06:48:52;96827.00;;;23.80
14851;BMP180;7517;48.400;11.770;2022-07-22T06:51:19;96819.00;;;23.80
14851;BMP180;7517;48.400;11.770;2022-07-22T06:53:46;96831.00;;;23.90
14851;BMP180;7517;48.400;11.770;2022-07-22T06:56:13;96828.00;;;24.00
14851;BMP180;7517;48.400;11.770;2022-07-22T06:58:41;96816.00;;;24.10
14851;BMP180;7517;48.400;11.770;2022-07-22T07:01:14;96824.00;;;24.10
14851;BMP180;7517;48.400;11.770;2022-07-22T07:03:43;96822.00;;;24.20
14851;BMP180;7517;48.400;11.770;2022-07-22T07:06:15;96821.00;;;24.30
14851;BMP180;7517;48.400;11.770;2022-07-22T07:08:43;96818.00;;;24.40
14851;BMP180;7517;48.400;11.770;2022-07-22T07:11:10;96821.00;;;24.50
14851;BMP180;7517;48.400;11.770;2022-07-22T07:13:37;96820.00;;;24.60
14851;BMP180;7517;48.400;11.770;2022-07-22T07:16:08;96815.00;;;24.80
14851;BMP180;7517;48.400;11.770;2022-07-22T07:18:35;96811.00;;;25.00
14851;BMP180;7517;48.400;11.770;2022-07-22T07:21:06;96818.00;;;25.20
14851;BMP180;7517;48.400;11.770;2022-07-22T07:23:36;96814.00;;;25.40
14851;BMP180;7517;48.400;11.770;2022-07-22T07:26:03;96814.00;;;25.60
14851;BMP180;7517;48.400;11.770;2022-07-22T07:28:30;96819.00;;;25.80
14851;BMP180;7517;48.400;11.770;2022-07-22T07:30:59;96814.00;;;26.00
14851;BMP180;7517;48.400;11.770;2022-07-22T07:33:27;96817.00;;;26.20
14851;BMP180;7517;48.400;11.770;2022-07-22T07:35:54;96818.00;;;26.40
14851;BMP180;7517;48.400;11.770;2022-07-22T07:38:23;96819.00;;;26.70
14851;BMP180;7517;48.400;11.770;2022-07-22T07:40:51;96816.00;;;26.90
14851;BMP180;7517;48.400;11.770;2022-07-22T07:43:18;96815.00;;;27.10
14851;BMP180;7517;48.400;11.770;2022-07-22T07:45:46;96810.00;;;27.20
14851;BMP180;7517;48.400;11.770;2022-07-22T07:48:13;96812.00;;;27.40
14851;BMP180;7517;48.400;11.770;2022-07-22T07:50:40;96815.00;;;27.60
14851;BMP180;7517;48.400;11.770;2022-07-22T07:53:08;96816.00;;;27.80
14851;BMP180;7517;48.400;11.770;2022-07-22T07:55:36;96810.00;;;28.00
14851;BMP180;7517;48.400;11.770;2022-07-22T07:58:05;96807.00;;;28.20
14851;BMP180;7517;48.400;11.770;2022-07-22T08:00:33;96803.00;;;28.40
14851;BMP180;7517;48.400;11.770;2022-07-22T08:03:01;96798.00;;;28.60
14851;BMP180;7517;48.400;11.770;2022-07-22T08:05:29;96799.00;;;28.80
14851;BMP180;7517;48.400;11.770;2022-07-22T08:07:56;96805.00;;;28.90
14851;BMP180;7517;48.400;11.770;2022-07-22T08:10:24;96805.00;;;29.10
14851;BMP180;7517;48.400;11.770;2022-07-22T08:12:54;96801.00;;;29.30
14851;BMP180;7517;48.400;11.770;2022-07-22T08:15:24;96802.00;;;29.50
14851;BMP180;7517;48.400;11.770;2022-07-22T08:17:52;96803.00;;;29.60
14851;BMP180;7517;48.400;11.770;2022-07-22T08:20:19;96802.00;;;29.80
14851;BMP180;7517;48.400;11.770;2022-07-22T08:22:46;96803.00;;;30.00
14851;BMP180;7517;48.400;11.770;2022-07-22T08:25:14;96806.00;;;30.10
14851;BMP180;7517;48.400;11.770;2022-07-22T08:27:41;96809.00;;;30.30
14851;BMP180;7517;48.400;11.770;2022-07-22T08:30:11;96810.00;;;30.40
14851;BMP180;7517;48.400;11.770;2022-07-22T08:32:39;96806.00;;;30.60
14851;BMP180;7517;48.400;11.770;2022-07-22T08:35:08;96798.00;;;30.80
14851;BMP180;7517;48.400;11.770;2022-07-22T08:37:36;96809.00;;;31.00
14851;BMP180;7517;48.400;11.770;2022-07-22T08:40:06;96809.00;;;31.20
14851;BMP180;7517;48.400;11.770;2022-07-22T08:42:37;96808.00;;;31.40
14851;BMP180;7517;48.400;11.770;2022-07-22T08:45:08;96810.00;;;31.50
14851;BMP180;7517;48.400;11.770;2022-07-22T08:47:37;96809.00;;;31.70
14851;BMP180;7517;48.400;11.770;2022-07-22T08:50:08;96806.00;;;31.90
14851;BMP180;7517;48.400;11.770;2022-07-22T08:52:35;96803.00;;;32.10
14851;BMP180;7517;48.400;11.770;2022-07-22T08:55:04;96802.00;;;32.20
14851;BMP180;7517;48.400;11.770;2022-07-22T08:57:31;96799.00;;;32.40
14851;BMP180;7517;48.400;11.770;2022-07-22T09:00:00;96792.00;;;32.60
14851;BMP180;7517;48.400;11.770;2022-07-22T09:02:39;96796.00;;;32.70
14851;BMP180;7517;48.400;11.770;2022-07-22T09:05:08;96792.00;;;32.90
14851;BMP180;7517;48.400;11.770;2022-07-22T09:07:39;96787.00;;;33.10
14851;BMP180;7517;48.400;11.770;2022-07-22T09:10:09;96786.00;;;33.30
14851;BMP180;7517;48.400;11.770;2022-07-22T09:12:52;96795.00;;;33.50
14851;BMP180;7517;48.400;11.770;2022-07-22T09:15:27;96791.00;;;33.80
14851;BMP180;7517;48.400;11.770;2022-07-22T09:17:58;96791.00;;;34.00
14851;BMP180;7517;48.400;11.770;2022-07-22T09:20:27;96792.00;;;34.30
14851;BMP180;7517;48.400;11.770;2022-07-22T09:22:55;96791.00;;;34.50
14851;BMP180;7517;48.400;11.770;2022-07-22T09:25:27;96786.00;;;34.80
14851;BMP180;7517;48.400;11.770;2022-07-22T09:28:11;96783.00;;;35.00
14851;BMP180;7517;48.400;11.770;2022-07-22T09:30:45;96786.00;;;35.30
14851;BMP180;7517;48.400;11.770;2022-07-22T09:33:14;96787.00;;;35.50
14851;BMP180;7517;48.400;11.770;2022-07-22T09:35:42;96786.00;;;35.70
14851;BMP180;7517;48.400;11.770;2022-07-22T09:38:11;96787.00;;;35.90
14851;BMP180;7517;48.400;11.770;2022-07-22T09:40:41;96779.00;;;36.00
14851;BMP180;7517;48.400;11.770;2022-07-22T09:43:11;96776.00;;;36.20
14851;BMP180;7517;48.400;11.770;2022-07-22T09:45:46;96769.00;;;36.40
14851;BMP180;7517;48.400;11.770;2022-07-22T09:48:17;96771.00;;;36.60
14851;BMP180;7517;48.400;11.770;2022-07-22T09:50:45;96768.00;;;36.80
14851;BMP180;7517;48.400;11.770;2022-07-22T09:53:13;96764.00;;;36.90
14851;BMP180;7517;48.400;11.770;2022-07-22T09:55:41;96763.00;;;37.10
14851;BMP180;7517;48.400;11.770;2022-07-22T09:58:09;96758.00;;;37.20
14851;BMP180;7517;48.400;11.770;2022-07-22T10:00:39;96750.00;;;37.30
14851;BMP180;7517;48.400;11.770;2022-07-22T10:03:11;96754.00;;;37.50
14851;BMP180;7517;48.400;11.770;2022-07-22T10:05:41;96755.00;;;37.60
14851;BMP180;7517;48.400;11.770;2022-07-22T10:08:09;96752.00;;;37.70
14851;BMP180;7517;48.400;11.770;2022-07-22T10:10:39;96745.00;;;37.70
14851;BMP180;7517;48.400;11.770;2022-07-22T10:13:07;96752.00;;;37.80
14851;BMP180;7517;48.400;11.770;2022-07-22T10:15:37;96744.00;;;37.80
14851;BMP180;7517;48.400;11.770;2022-07-22T10:18:13;96741.00;;;37.90
14851;BMP180;7517;48.400;11.770;2022-07-22T10:20:43;96745.00;;;38.00
14851;BMP180;7517;48.400;11.770;2022-07-22T10:23:12;96735.00;;;38.10
14851;BMP180;7517;48.400;11.770;2022-07-22T10:25:52;96746.00;;;38.10
14851;BMP180;7517;48.400;11.770;2022-07-22T10:28:27;96740.00;;;38.20
14851;BMP180;7517;48.400;11.770;2022-07-22T10:31:19;96735.00;;;38.20
14851;BMP180;7517;48.400;11.770;2022-07-22T10:33:51;96736.00;;;38.20
14851;BMP180;7517;48.400;11.770;2022-07-22T10:36:34;96735.00;;;38.20
14851;BMP180;7517;48.400;11.770;2022-07-22T10:39:05;96731.00;;;38.20
14851;BMP180;7517;48.400;11.770;2022-07-22T10:41:36;96729.00;;;38.20
14851;BMP180;7517;48.400;11.770;2022-07-22T10:44:04;96724.00;;;38.20
14851;BMP180;7517;48.400;11.770;2022-07-22T10:46:58;96727.00;;;38.20
14851;BMP180;7517;48.400;11.770;2022-07-22T10:49:28;96730.00;;;38.20
14851;BMP180;7517;48.400;11.770;2022-07-22T10:52:12;96732.00;;;38.30
14851;BMP180;7517;48.400;11.770;2022-07-22T10:55:21;96729.00;;;38.20
14851;BMP180;7517;48.400;11.770;2022-07-22T10:57:48;96727.00;;;38.20
14851;BMP180;7517;48.400;11.770;2022-07-22T11:00:15;96722.00;;;38.10
14851;BMP180;7517;48.400;11.770;2022-07-22T11:02:43;96726.00;;;38.00
14851;BMP180;7517;48.400;11.770;2022-07-22T11:05:11;96718.00;;;37.90
14851;BMP180;7517;48.400;11.770;2022-07-22T11:07:43;96715.00;;;37.70
14851;BMP180;7517;48.400;11.770;2022-07-22T11:10:13;96716.00;;;37.60
14851;BMP180;7517;48.400;11.770;2022-07-22T11:12:42;96715.00;;;37.40
14851;BMP180;7517;48.400;11.770;2022-07-22T11:15:10;96708.00;;;37.20
14851;BMP180;7517;48.400;11.770;2022-07-22T11:17:39;96703.00;;;37.10
14851;BMP180;7517;48.400;11.770;2022-07-22T11:20:09;96707.00;;;36.90
14851;BMP180;7517;48.400;11.770;2022-07-22T11:22:37;96708.00;;;36.80
14851;BMP180;7517;48.400;11.770;2022-07-22T11:25:09;96707.00;;;36.60
14851;BMP180;7517;48.400;11.770;2022-07-22T11:27:36;96699.00;;;36.50
14851;BMP180;7517;48.400;11.770;2022-07-22T11:30:05;96702.00;;;36.30
14851;BMP180;7517;48.400;11.770;2022-07-22T11:32:33;96694.00;;;36.10
14851;BMP180;7517;48.400;11.770;2022-07-22T11:35:00;96698.00;;;36.00
14851;BMP180;7517;48.400;11.770;2022-07-22T11:37:28;96685.00;;;35.80
14851;BMP180;7517;48.400;11.770;2022-07-22T11:40:02;96687.00;;;35.70
14851;BMP180;7517;48.400;11.770;2022-07-22T11:42:31;96686.00;;;35.60
14851;BMP180;7517;48.400;11.770;2022-07-22T11:44:58;96682.00;;;35.50
14851;BMP180;7517;48.400;11.770;2022-07-22T11:47:26;96678.00;;;35.40
14851;BMP180;7517;48.400;11.770;2022-07-22T11:49:53;96670.00;;;35.40
14851;BMP180;7517;48.400;11.770;2022-07-22T11:52:20;96674.00;;;35.30
14851;BMP180;7517;48.400;11.770;2022-07-22T11:54:47;96667.00;;;35.20
14851;BMP180;7517;48.400;11.770;2022-07-22T11:57:16;96671.00;;;35.10
14851;BMP180;7517;48.400;11.770;2022-07-22T11:59:45;96664.00;;;35.00
14851;BMP180;7517;48.400;11.770;2022-07-22T12:02:13;96665.00;;;35.00
14851;BMP180;7517;48.400;11.770;2022-07-22T12:04:41;96653.00;;;34.90
14851;BMP180;7517;48.400;11.770;2022-07-22T12:07:12;96652.00;;;34.80
14851;BMP180;7517;48.400;11.770;2022-07-22T12:09:42;96654.00;;;34.80
14851;BMP180;7517;48.400;11.770;2022-07-22T12:12:10;96649.00;;;34.70
14851;BMP180;7517;48.400;11.770;2022-07-22T12:14:47;96641.00;;;34.70
14851;BMP180;7517;48.400;11.770;2022-07-22T12:17:14;96647.00;;;34.70
14851;BMP180;7517;48.400;11.770;2022-07-22T12:19:42;96635.00;;;34.70
14851;BMP180;7517;48.400;11.770;2022-07-22T12:22:11;96639.00;;;34.60
14851;BMP180;7517;48.400;11.770;2022-07-22T12:24:42;96637.00;;;34.70
14851;BMP180;7517;48.400;11.770;2022-07-22T12:27:12;96631.00;;;34.60
14851;BMP180;7517;48.400;11.770;2022-07-22T12:29:46;96632.00;;;34.60
14851;BMP180;7517;48.400;11.770;2022-07-22T12:32:17;96630.00;;;34.60
14851;BMP180;7517;48.400;11.770;2022-07-22T12:34:47;96627.00;;;34.60
14851;BMP180;7517;48.400;11.770;2022-07-22T12:37:23;96630.00;;;34.60
14851;BMP180;7517;48.400;11.770;2022-07-22T12:39:59;96628.00;;;34.60
14851;BMP180;7517;48.400;11.770;2022-07-22T12:42:30;96633.00;;;34.60
14851;BMP180;7517;48.400;11.770;2022-07-22T12:45:05;96623.00;;;34.50
14851;BMP180;7517;48.400;11.770;2022-07-22T12:47:43;96629.00;;;34.50
14851;BMP180;7517;48.400;11.770;2022-07-22T12:50:23;96627.00;;;34.40
14851;BMP180;7517;48.400;11.770;2022-07-22T12:52:52;96619.00;;;34.40
14851;BMP180;7517;48.400;11.770;2022-07-22T12:55:20;96614.00;;;34.40
14851;BMP180;7517;48.400;11.770;2022-07-22T12:57:47;96615.00;;;34.40
14851;BMP180;7517;48.400;11.770;2022-07-22T13:00:23;96611.00;;;34.30
14851;BMP180;7517;48.400;11.770;2022-07-22T13:02:50;96608.00;;;34.30
14851;BMP180;7517;48.400;11.770;2022-07-22T13:05:19;96613.00;;;34.20
14851;BMP180;7517;48.400;11.770;2022-07-22T13:07:46;96609.00;;;34.20
14851;BMP180;7517;48.400;11.770;2022-07-22T13:10:15;96606.00;;;34.20
14851;BMP180;7517;48.400;11.770;2022-07-22T13:12:42;96606.00;;;34.30
14851;BMP180;7517;48.400;11.770;2022-07-22T13:15:11;96597.00;;;34.30
14851;BMP180;7517;48.400;11.770;2022-07-22T13:17:41;96596.00;;;34.30
14851;BMP180;7517;48.400;11.770;2022-07-22T13:20:11;96596.00;;;34.30
14851;BMP180;7517;48.400;11.770;2022-07-22T13:22:39;96592.00;;;34.30
14851;BMP180;7517;48.400;11.770;2022-07-22T13:25:07;96599.00;;;34.30
14851;BMP180;7517;48.400;11.770;2022-07-22T13:27:34;96587.00;;;34.30
14851;BMP180;7517;48.400;11.770;2022-07-22T13:30:03;96584.00;;;34.20
14851;BMP180;7517;48.400;11.770;2022-07-22T13:32:30;96586.00;;;34.30
14851;BMP180;7517;48.400;11.770;2022-07-22T13:34:59;96581.00;;;34.30
14851;BMP180;7517;48.400;11.770;2022-07-22T13:37:27;96578.00;;;34.30
14851;BMP180;7517;48.400;11.770;2022-07-22T13:39:54;96577.00;;;34.30
14851;BMP180;7517;48.400;11.770;2022-07-22T13:42:21;96578.00;;;34.30
14851;BMP180;7517;48.400;11.770;2022-07-22T13:44:49;96574.00;;;34.30
14851;BMP180;7517;48.400;11.770;2022-07-22T13:47:17;96566.00;;;34.30
14851;BMP180;7517;48.400;11.770;2022-07-22T13:49:45;96563.00;;;34.30
14851;BMP180;7517;48.400;11.770;2022-07-22T13:52:16;96566.00;;;34.40
14851;BMP180;7517;48.400;11.770;2022-07-22T13:54:44;96566.00;;;34.40
14851;BMP180;7517;48.400;11.770;2022-07-22T13:57:12;96560.00;;;34.40
14851;BMP180;7517;48.400;11.770;2022-07-22T13:59:39;96555.00;;;34.40
14851;BMP180;7517;48.400;11.770;2022-07-22T14:02:07;96560.00;;;34.50
14851;BMP180;7517;48.400;11.770;2022-07-22T14:04:35;96557.00;;;34.50
14851;BMP180;7517;48.400;11.770;2022-07-22T14:07:02;96554.00;;;34.50
14851;BMP180;7517;48.400;11.770;2022-07-22T14:09:31;96556.00;;;34.50
14851;BMP180;7517;48.400;11.770;2022-07-22T14:11:58;96547.00;;;34.50
14851;BMP180;7517;48.400;11.770;2022-07-22T14:14:25;96551.00;;;34.50
14851;BMP180;7517;48.400;11.770;2022-07-22T14:16:52;96543.00;;;34.50
14851;BMP180;7517;48.400;11.770;2022-07-22T14:19:19;96550.00;;;34.60